Time;durP1;ratioP1;P1;durP2;ratioP2;P2;SDS_P1;SDS_P2;PMS_P1;PMS_P2;Temp;Humidity;BMP_temperature;BMP_pressure;BME280_temperature;BME280_humidity;BME280_pressure;Samples;Min_cycle;Max_cycle;Signal;HPM_P1;HPM_P2
2022/01/17 00:01:46;;;;;;;8.30;2.10;;;;;;;9.76;100.00;102176.94;5126289;27;20055;-84
2022/01/17 00:04:13;;;;;;;10.45;2.38;;;;;;;9.94;100.00;102159.31;5122537;27;20052;-85
2022/01/17 00:06:41;;;;;;;9.55;2.13;;;;;;;10.06;100.00;102167.00;5152804;27;20058;-84
2022/01/17 00:09:08;;;;;;;15.00;2.85;;;;;;;9.74;100.00;102165.63;5135003;27;20054;-84
2022/01/17 00:11:41;;;;;;;8.30;2.20;;;;;;;9.86;100.00;102156.75;5150589;27;20066;-85
2022/01/17 00:14:13;;;;;;;14.52;2.33;;;;;;;10.09;100.00;102172.19;5128666;27;20050;-85
2022/01/17 00:16:45;;;;;;;14.10;2.50;;;;;;;9.76;100.00;102179.56;5094055;28;20055;-85
2022/01/17 00:19:35;;;;;;;16.70;3.17;;;;;;;9.94;100.00;102178.47;5105056;27;20050;-85
2022/01/17 00:22:02;;;;;;;14.05;2.75;;;;;;;9.92;100.00;102177.63;5095299;28;20069;-85
2022/01/17 00:24:29;;;;;;;10.77;2.13;;;;;;;9.97;100.00;102181.06;5113049;28;20051;-85
2022/01/17 00:26:56;;;;;;;14.82;2.22;;;;;;;9.88;100.00;102171.56;5109245;27;20062;-85
2022/01/17 00:29:25;;;;;;;9.65;2.10;;;;;;;10.14;100.00;102190.44;5131541;27;20144;-84
2022/01/17 00:31:51;;;;;;;11.10;2.35;;;;;;;9.77;100.00;102203.97;5127471;27;20054;-85
2022/01/17 00:34:18;;;;;;;13.68;2.40;;;;;;;9.59;100.00;102211.09;5134540;27;20049;-84
2022/01/17 00:36:45;;;;;;;14.95;3.42;;;;;;;9.93;100.00;102208.13;5111463;28;20499;-85
2022/01/17 00:39:12;;;;;;;9.65;2.33;;;;;;;9.91;100.00;102222.97;5104160;27;20058;-84
2022/01/17 00:41:39;;;;;;;14.32;2.53;;;;;;;9.90;100.00;102213.41;5115261;28;20043;-85
2022/01/17 00:44:05;;;;;;;10.70;2.55;;;;;;;9.92;100.00;102219.50;5140952;27;20042;-85
2022/01/17 00:46:33;;;;;;;9.45;1.67;;;;;;;9.96;100.00;102209.84;5134911;27;20078;-85
2022/01/17 00:49:00;;;;;;;14.15;2.63;;;;;;;9.90;100.00;102213.41;5124936;28;20070;-85
2022/01/17 00:51:27;;;;;;;8.77;1.80;;;;;;;10.05;100.00;102209.75;5131877;28;20061;-85
2022/01/17 00:53:54;;;;;;;12.40;2.53;;;;;;;9.68;100.00;102203.19;5139982;27;20045;-85
2022/01/17 00:56:22;;;;;;;10.23;2.33;;;;;;;9.96;100.00;102205.47;5135436;27;20426;-85
2022/01/17 00:58:49;;;;;;;13.57;2.83;;;;;;;9.91;100.00;102190.72;5124747;27;20042;-85
2022/01/17 01:01:17;;;;;;;9.82;1.90;;;;;;;9.83;100.00;102214.38;5116535;28;20496;-85
2022/01/17 01:03:44;;;;;;;11.80;2.03;;;;;;;9.67;100.00;102209.28;5111286;28;20370;-84
2022/01/17 01:06:11;;;;;;;10.13;2.28;;;;;;;9.55;100.00;102213.78;5112040;28;20047;-84
2022/01/17 01:08:37;;;;;;;10.88;2.58;;;;;;;9.83;100.00;102217.00;5122990;27;20047;-85
2022/01/17 01:11:04;;;;;;;9.63;3.13;;;;;;;9.96;100.00;102199.41;5115774;28;20048;-85
2022/01/17 01:13:31;;;;;;;9.00;1.80;;;;;;;9.92;100.00;102227.34;5111245;28;20046;-85
2022/01/17 01:16:20;;;;;;;7.90;2.13;;;;;;;9.81;100.00;102226.56;5096878;28;20381;-85
2022/01/17 01:29:26;;;;;;;11.90;2.40;;;;;;;9.62;100.00;102232.00;5150336;27;20055;-84
2022/01/17 01:31:59;;;;;;;9.20;2.20;;;;;;;9.81;100.00;102237.03;5132921;28;20481;-85
2022/01/17 01:34:42;;;;;;;8.77;2.03;;;;;;;9.75;100.00;102221.41;5147958;27;20130;-85
2022/01/17 01:37:09;;;;;;;;;;;;;;;9.63;100.00;102252.06;5130091;28;20138;-85
2022/01/17 01:39:37;;;;;;;11.38;2.10;;;;;;;9.88;100.00;102223.91;5113946;28;19930;-85
2022/01/17 01:42:13;;;;;;;10.43;2.97;;;;;;;9.60;100.00;102225.06;5122272;27;20053;-85
2022/01/17 01:44:40;;;;;;;7.38;1.92;;;;;;;9.66;100.00;102219.75;5127941;28;20054;-85
2022/01/17 01:47:07;;;;;;;10.10;1.98;;;;;;;9.93;100.00;102247.38;5131166;28;20057;-85
2022/01/17 01:49:34;;;;;;;13.98;2.10;;;;;;;10.11;98.00;102248.06;5121635;28;20046;-85
2022/01/17 01:52:00;;;;;;;11.32;2.25;;;;;;;9.82;100.00;102264.94;5132498;28;20469;-85
2022/01/17 01:54:27;;;;;;;10.15;3.03;;;;;;;9.84;100.00;102245.75;5135229;27;22003;-85
2022/01/17 01:56:54;;;;;;;9.35;1.88;;;;;;;9.88;99.02;102236.97;5152794;27;20042;-85
2022/01/17 01:59:22;;;;;;;12.75;2.50;;;;;;;10.01;99.67;102283.94;5130078;27;20055;-85
2022/01/17 02:01:49;;;;;;;17.58;2.90;;;;;;;9.86;99.79;102280.59;5096580;28;20052;-85
2022/01/17 02:04:16;;;;;;;13.60;2.50;;;;;;;10.22;95.93;102273.22;5145109;27;20071;-85
2022/01/17 02:06:44;;;;;;;14.40;2.30;;;;;;;9.83;99.39;102269.31;5117949;27;20047;-86
2022/01/17 02:09:11;;;;;;;14.45;2.65;;;;;;;10.08;97.27;102296.94;5134038;27;20055;-85
2022/01/17 02:11:39;;;;;;;10.88;2.20;;;;;;;10.12;98.83;102292.53;5134763;27;20051;-85
2022/01/17 02:14:06;;;;;;;7.22;1.85;;;;;;;10.21;97.03;102278.47;5154223;27;20464;-85
2022/01/17 02:16:33;;;;;;;10.48;1.98;;;;;;;9.94;98.82;102283.13;5096646;28;20048;-85
2022/01/17 02:19:01;;;;;;;10.70;1.88;;;;;;;9.85;99.87;102322.47;5096459;28;20721;-85
2022/01/17 02:21:45;;;;;;;10.57;2.72;;;;;;;9.99;98.96;102304.88;5115514;27;20062;-85
2022/01/17 02:24:18;;;;;;;11.85;2.65;;;;;;;10.38;95.82;102326.31;5117076;27;20047;-85
2022/01/17 02:26:47;;;;;;;15.65;4.55;;;;;;;9.82;99.95;102344.28;5114119;28;20048;-85
2022/01/17 02:29:15;;;;;;;13.82;2.33;;;;;;;10.39;97.64;102338.53;5128434;27;20099;-85
2022/01/17 02:31:43;;;;;;;7.28;1.90;;;;;;;10.05;97.12;102330.13;5119694;27;20058;-85
2022/01/17 02:34:10;;;;;;;8.95;1.73;;;;;;;10.37;96.98;102357.75;5135819;27;20057;-85
2022/01/17 02:36:37;;;;;;;15.95;2.70;;;;;;;10.31;95.92;102342.97;5142208;27;20047;-86
2022/01/17 02:39:04;;;;;;;7.00;2.28;;;;;;;10.44;96.64;102360.28;5117353;27;20057;-85
2022/01/17 02:41:36;;;;;;;10.30;2.20;;;;;;;10.22;98.19;102354.38;5116871;27;20381;-85
2022/01/17 02:44:02;;;;;;;12.10;2.00;;;;;;;10.10;95.86;102330.94;5127370;27;20498;-84
2022/01/17 02:46:30;;;;;;;10.48;2.67;;;;;;;10.22;97.89;102364.84;5149418;27;20472;-85
2022/01/17 02:48:59;;;;;;;12.32;2.55;;;;;;;10.29;97.56;102380.47;5137222;27;20054;-84
2022/01/17 02:51:27;;;;;;;11.75;2.85;;;;;;;10.23;98.78;102398.00;5117517;27;20051;-85
2022/01/17 02:53:54;;;;;;;13.38;2.40;;;;;;;10.12;97.49;102344.88;5137352;27;20043;-85
2022/01/17 02:56:21;;;;;;;16.50;2.50;;;;;;;10.17;99.68;102379.72;5155155;27;20476;-85
2022/01/17 02:58:48;;;;;;;11.30;2.05;;;;;;;10.48;97.30;102408.25;5145017;27;20058;-85
2022/01/17 03:01:23;;;;;;;21.05;2.83;;;;;;;10.27;98.22;102386.63;5115273;27;20138;-85
2022/01/17 03:03:50;;;;;;;10.18;2.65;;;;;;;10.37;97.58;102397.88;5134568;27;20129;-85
2022/01/17 03:06:18;;;;;;;10.75;2.45;;;;;;;10.27;97.02;102376.16;5120011;27;20057;-84
2022/01/17 03:08:45;;;;;;;11.70;1.98;;;;;;;10.24;99.74;102391.03;5140530;27;20052;-85
2022/01/17 03:11:17;;;;;;;7.47;1.90;;;;;;;10.20;100.00;102400.66;5119122;27;20092;-85
2022/01/17 03:13:44;;;;;;;8.45;2.25;;;;;;;10.66;97.82;102391.50;5147556;27;20043;-85
2022/01/17 03:16:16;;;;;;;16.35;2.25;;;;;;;10.05;100.00;102379.84;5120247;27;20050;-85
2022/01/17 03:18:45;;;;;;;12.30;1.85;;;;;;;10.51;97.76;102405.59;5135468;27;20039;-85
2022/01/17 03:21:15;;;;;;;13.23;2.05;;;;;;;10.21;100.00;102375.34;5135135;27;20393;-85
2022/01/17 03:23:44;;;;;;;10.00;1.85;;;;;;;10.51;97.57;102379.41;5134574;27;20160;-84
2022/01/17 03:26:11;;;;;;;7.53;1.88;;;;;;;10.06;100.00;102405.16;5116594;27;20530;-86
2022/01/17 03:28:38;;;;;;;7.70;1.70;;;;;;;10.54;98.39;102378.53;5116341;27;20396;-85
2022/01/17 03:31:07;;;;;;;7.70;1.80;;;;;;;10.45;97.79;102406.53;5133734;27;20054;-85
2022/01/17 03:33:34;;;;;;;12.52;2.47;;;;;;;10.50;96.54;102390.78;5137923;27;20047;-86
2022/01/17 03:36:01;;;;;;;18.70;2.13;;;;;;;10.21;100.00;102412.84;5115734;27;20047;-85
2022/01/17 03:38:30;;;;;;;9.35;1.73;;;;;;;10.50;97.57;102411.75;5136507;27;20063;-86
2022/01/17 03:40:59;;;;;;;7.75;1.85;;;;;;;10.43;97.90;102397.84;5120559;27;20047;-85
2022/01/17 03:43:27;;;;;;;9.60;1.90;;;;;;;10.32;99.49;102394.44;5120605;27;20042;-85
2022/01/17 03:45:57;;;;;;;15.30;2.97;;;;;;;10.36;100.00;102411.03;5122261;27;20773;-85
2022/01/17 03:48:25;;;;;;;10.63;2.38;;;;;;;10.43;99.35;102407.44;5115295;27;20137;-85
2022/01/17 03:50:55;;;;;;;10.55;2.10;;;;;;;10.17;99.47;102390.19;5111495;28;20054;-86
2022/01/17 03:53:22;;;;;;;12.02;2.17;;;;;;;10.35;99.72;102394.41;5113162;28;20054;-86
2022/01/17 03:55:49;;;;;;;9.90;2.15;;;;;;;10.16;99.40;102400.69;5130961;27;20049;-86
2022/01/17 03:58:17;;;;;;;7.53;1.92;;;;;;;10.33;98.91;102411.91;5133549;27;20054;-85
2022/01/17 04:00:47;;;;;;;10.23;2.65;;;;;;;10.46;99.68;102412.63;5142860;27;20042;-85
2022/01/17 04:03:14;;;;;;;11.13;2.10;;;;;;;10.57;96.53;102402.94;5154609;27;20051;-85
2022/01/17 04:05:41;;;;;;;8.85;2.45;;;;;;;10.71;96.99;102430.72;5118736;27;20489;-85
2022/01/17 04:08:08;;;;;;;11.95;2.88;;;;;;;10.24;98.49;102415.44;5115475;27;20058;-85
2022/01/17 04:10:35;;;;;;;9.68;1.80;;;;;;;10.54;96.93;102420.44;5130750;27;20042;-85
2022/01/17 04:13:04;;;;;;;8.57;2.10;;;;;;;10.56;96.46;102423.91;5150882;27;20050;-85
2022/01/17 04:15:33;;;;;;;14.07;2.13;;;;;;;10.73;95.91;102431.56;5110596;28;20076;-85
2022/01/17 04:18:00;;;;;;;8.45;2.30;;;;;;;10.27;98.67;102435.50;5128778;27;20138;-85
2022/01/17 04:20:28;;;;;;;9.77;2.10;;;;;;;10.61;97.92;102437.81;5130062;27;20047;-85
2022/01/17 04:22:57;;;;;;;14.02;2.00;;;;;;;10.61;97.70;102429.97;5093697;28;20058;-85
2022/01/17 04:25:29;;;;;;;11.63;2.42;;;;;;;10.43;97.47;102439.75;5114343;27;20043;-86
2022/01/17 04:27:57;;;;;;;7.07;1.88;;;;;;;10.83;95.46;102422.72;5115079;27;20430;-85
2022/01/17 04:30:24;;;;;;;10.93;2.08;;;;;;;10.61;95.77;102420.34;5114068;28;20043;-86
2022/01/17 04:32:51;;;;;;;13.05;2.00;;;;;;;10.67;97.74;102447.34;5132705;27;20050;-85
2022/01/17 04:35:20;;;;;;;5.22;1.50;;;;;;;10.23;99.76;102433.78;5114751;28;20050;-86
2022/01/17 04:37:54;;;;;;;11.60;1.80;;;;;;;10.42;97.34;102461.56;5115021;27;20086;-85
2022/01/17 04:40:21;;;;;;;8.90;2.28;;;;;;;10.79;95.67;102453.31;5104506;28;20485;-85
2022/01/17 04:42:49;;;;;;;8.18;1.77;;;;;;;10.60;95.83;102442.16;5131869;27;20506;-85
2022/01/17 04:45:18;;;;;;;12.95;1.83;;;;;;;10.60;95.54;102457.03;5128809;27;20444;-85
2022/01/17 04:47:49;;;;;;;11.82;1.92;;;;;;;10.85;94.01;102441.03;5134476;27;20130;-86
2022/01/17 04:50:19;;;;;;;10.75;1.70;;;;;;;10.53;94.87;102455.34;5114040;28;20146;-86
2022/01/17 04:52:47;;;;;;;7.30;1.60;;;;;;;10.95;92.19;102456.63;5114803;28;20057;-86
2022/01/17 04:55:15;;;;;;;10.02;1.63;;;;;;;11.01;92.10;102476.66;5132243;28;20047;-86
2022/01/17 04:57:44;;;;;;;11.38;2.03;;;;;;;10.80;91.09;102462.94;5115023;28;20054;-86
2022/01/17 05:00:13;;;;;;;10.98;2.10;;;;;;;10.98;91.52;102466.25;5124189;28;20473;-86
2022/01/17 05:02:42;;;;;;;10.60;1.58;;;;;;;10.89;91.92;102474.19;5115001;28;20054;-85
2022/01/17 05:05:10;;;;;;;11.57;2.90;;;;;;;10.63;91.89;102484.06;5140727;27;20053;-85
2022/01/17 05:07:39;;;;;;;10.40;1.98;;;;;;;10.48;92.45;102444.91;5114752;28;20536;-85
2022/01/17 05:10:09;;;;;;;10.30;2.00;;;;;;;10.67;93.21;102492.75;5124544;27;20050;-85
2022/01/17 05:12:36;;;;;;;11.90;1.98;;;;;;;10.73;92.71;102497.06;5093456;28;20051;-85
2022/01/17 05:15:05;;;;;;;7.75;1.63;;;;;;;10.56;93.72;102494.63;5112402;28;20043;-85
2022/01/17 05:19:59;;;;;;;10.82;2.15;;;;;;;10.23;95.67;102449.47;5134622;27;20055;-85
2022/01/17 05:22:33;;;;;;;14.07;2.20;;;;;;;10.50;95.23;102492.03;5114677;28;20051;-85
2022/01/17 05:25:04;;;;;;;6.68;1.58;;;;;;;10.64;94.58;102491.03;5131916;27;20053;-85
2022/01/17 05:27:32;;;;;;;13.38;2.10;;;;;;;10.76;92.96;102494.41;5153211;27;20049;-85
2022/01/17 05:29:58;;;;;;;8.13;1.83;;;;;;;10.63;92.48;102476.19;5113596;28;20050;-85
2022/01/17 05:32:26;;;;;;;8.82;1.60;;;;;;;10.65;93.86;102476.19;5118895;27;20433;-85
2022/01/17 05:34:52;;;;;;;10.25;1.80;;;;;;;10.84;91.41;102495.22;5156963;27;20095;-85
2022/01/17 05:37:19;;;;;;;9.68;2.03;;;;;;;10.78;91.82;102496.16;5137081;27;20137;-86
2022/01/17 05:39:46;;;;;;;10.80;1.83;;;;;;;10.67;91.14;102494.50;5123062;27;20051;-85
2022/01/17 05:42:17;;;;;;;8.90;1.67;;;;;;;10.58;91.61;102498.09;5138472;27;20046;-85
2022/01/17 05:44:46;;;;;;;10.45;2.25;;;;;;;10.59;92.67;102490.22;5120955;27;20075;-85
2022/01/17 05:47:14;;;;;;;10.93;1.83;;;;;;;10.65;91.99;102478.81;5117651;27;20088;-85
2022/01/17 05:49:41;;;;;;;7.82;1.90;;;;;;;10.38;91.25;102451.16;5135260;27;20043;-85
2022/01/17 05:52:08;;;;;;;4.38;1.40;;;;;;;10.49;90.97;102475.47;5136464;27;20491;-85
2022/01/17 05:54:36;;;;;;;7.75;1.77;;;;;;;10.27;92.93;102480.00;5125132;27;20044;-85
2022/01/17 05:57:03;;;;;;;5.00;1.20;;;;;;;10.59;92.08;102499.84;5136131;27;20050;-85
2022/01/17 05:59:30;;;;;;;7.63;1.70;;;;;;;10.45;91.79;102492.97;5123902;27;20044;-85
2022/01/17 06:01:57;;;;;;;11.52;1.98;;;;;;;10.34;92.95;102518.38;5097330;28;20047;-86
2022/01/17 06:04:24;;;;;;;12.52;2.00;;;;;;;10.45;91.37;102519.16;5123487;27;20071;-85
2022/01/17 06:06:51;;;;;;;11.10;2.70;;;;;;;10.72;90.10;102521.53;5125983;27;20043;-85
2022/01/17 06:09:18;;;;;;;9.13;1.90;;;;;;;10.35;90.43;102500.91;5128948;27;20044;-85
2022/01/17 06:11:45;;;;;;;8.63;1.92;;;;;;;10.48;89.82;102488.56;5096438;28;20054;-85
2022/01/17 06:14:16;;;;;;;8.20;2.00;;;;;;;10.48;89.99;102496.44;5114397;28;20078;-85
2022/01/17 06:16:45;;;;;;;9.82;1.98;;;;;;;10.71;88.92;102514.53;5125434;27;20053;-85
2022/01/17 06:19:13;;;;;;;9.27;2.33;;;;;;;10.52;89.17;102521.72;5137237;27;20042;-85
2022/01/17 06:21:40;;;;;;;10.15;1.92;;;;;;;10.59;89.05;102523.41;5139357;27;20034;-85
2022/01/17 06:24:09;;;;;;;7.38;1.60;;;;;;;10.64;88.02;102538.19;5137960;27;20055;-85
2022/01/17 06:26:40;;;;;;;7.90;2.03;;;;;;;10.73;87.85;102541.59;5156062;27;20047;-84
2022/01/17 06:29:09;;;;;;;12.43;2.20;;;;;;;10.60;89.44;102541.69;5156341;27;20046;-85
2022/01/17 06:31:39;;;;;;;8.10;1.80;;;;;;;10.67;87.87;102573.09;5114907;28;20047;-84
2022/01/17 06:34:06;;;;;;;8.82;1.63;;;;;;;10.43;89.05;102548.88;5113295;27;20062;-86
2022/01/17 06:36:33;;;;;;;6.40;1.70;;;;;;;10.47;89.89;102550.56;5124428;27;20048;-84
2022/01/17 06:39:00;;;;;;;5.10;1.23;;;;;;;10.61;89.35;102539.97;5107857;27;20052;-85
2022/01/17 06:41:27;;;;;;;9.88;2.50;;;;;;;10.39;90.75;102519.22;5128261;27;20120;-85
2022/01/17 06:43:56;;;;;;;16.25;2.42;;;;;;;10.33;91.03;102503.53;5122527;27;20798;-85
2022/01/17 06:46:24;;;;;;;6.10;1.60;;;;;;;10.33;90.19;102489.59;5106434;27;20040;-84
2022/01/17 06:48:51;;;;;;;4.78;1.35;;;;;;;10.60;88.69;102488.47;5109592;27;20046;-85
2022/01/17 06:51:18;;;;;;;10.02;1.65;;;;;;;10.38;89.50;102485.19;5108247;27;20135;-85
2022/01/17 06:53:46;;;;;;;7.80;1.95;;;;;;;10.70;88.25;102504.97;5126742;27;20467;-84
2022/01/17 06:56:13;;;;;;;12.18;2.40;;;;;;;10.79;86.29;102510.09;5104453;27;20043;-85
2022/01/17 06:58:42;;;;;;;7.53;1.45;;;;;;;10.51;87.83;102515.59;5112643;27;20047;-85
2022/01/17 07:01:09;;;;;;;7.22;1.83;;;;;;;10.47;89.04;102528.75;5133739;27;20042;-87
2022/01/17 07:03:37;;;;;;;7.00;1.60;;;;;;;10.53;87.95;102511.22;5116542;27;20130;-87
2022/01/17 07:06:04;;;;;;;8.60;1.70;;;;;;;10.72;87.79;102547.72;5116308;27;20047;-89
2022/01/17 07:08:31;;;;;;;2.40;1.10;;;;;;;10.73;85.15;102502.28;5114116;27;20043;-88
2022/01/17 07:10:58;;;;;;;9.60;1.63;;;;;;;10.75;83.92;102504.03;5112228;28;20105;-88
2022/01/17 07:13:24;;;;;;;4.43;1.35;;;;;;;10.93;83.98;102530.94;5117225;27;20071;-88
2022/01/17 07:15:52;;;;;;;8.00;1.50;;;;;;;11.16;82.64;102557.75;5098019;27;20047;-89
2022/01/17 07:18:19;;;;;;;7.40;1.52;;;;;;;10.90;82.71;102558.03;5112046;28;20043;-89
2022/01/17 07:20:47;;;;;;;5.28;1.35;;;;;;;10.77;84.71;102567.75;5117737;27;20469;-89
2022/01/17 07:23:15;;;;;;;4.30;1.27;;;;;;;10.63;86.00;102580.13;5129703;27;20063;-88
2022/01/17 07:25:41;;;;;;;5.80;1.52;;;;;;;10.41;87.49;102545.34;5112644;28;20473;-88
2022/01/17 07:28:09;;;;;;;6.68;1.40;;;;;;;10.52;85.67;102547.91;5098363;28;20058;-88
2022/01/17 07:30:37;;;;;;;4.57;1.27;;;;;;;10.46;87.79;102567.16;5120169;27;20130;-89
2022/01/17 07:33:05;;;;;;;5.72;1.40;;;;;;;10.44;87.69;102571.53;5099164;27;20071;-88
2022/01/17 07:35:34;;;;;;;5.90;1.88;;;;;;;10.26;90.70;102580.34;5120933;27;20043;-88
2022/01/17 07:38:01;;;;;;;4.38;1.30;;;;;;;9.91;91.46;102526.50;5105234;27;20046;-87
2022/01/17 07:40:29;;;;;;;7.88;1.52;;;;;;;10.10;92.00;102578.72;5119319;27;20134;-87
2022/01/17 07:42:55;;;;;;;5.30;1.27;;;;;;;9.92;94.04;102537.84;5098472;28;20059;-87
2022/01/17 07:45:23;;;;;;;5.82;1.55;;;;;;;9.47;95.40;102536.31;5122383;27;20039;-87
2022/01/17 07:50:21;;;;;;;6.18;1.30;;;;;;;9.84;93.13;102559.69;5119517;27;20443;-87
2022/01/17 07:52:49;;;;;;;5.35;1.30;;;;;;;9.74;95.59;102564.94;5115557;27;20059;-87
2022/01/17 07:55:18;;;;;;;4.85;1.20;;;;;;;9.52;94.18;102528.44;5110668;27;20047;-87
2022/01/17 07:57:46;;;;;;;5.75;1.25;;;;;;;9.52;97.27;102574.66;5113439;27;20480;-86
2022/01/17 08:00:19;;;;;;;6.38;1.40;;;;;;;9.24;100.00;102538.13;5112738;28;20051;-88
2022/01/17 08:02:49;;;;;;;7.13;2.83;;;;;;;9.45;100.00;102552.88;5134956;27;20043;-87
2022/01/17 08:05:16;;;;;;;6.03;1.90;;;;;;;9.43;100.00;102542.41;5113833;27;20546;-88
2022/01/17 08:07:44;;;;;;;4.50;1.30;;;;;;;9.33;100.00;102530.28;5115235;27;20046;-88
2022/01/17 08:10:12;;;;;;;4.40;1.48;;;;;;;9.35;100.00;102549.44;5133027;27;20408;-87
2022/01/17 08:12:41;;;;;;;3.35;1.30;;;;;;;9.27;100.00;102536.38;5115578;27;20469;-88
2022/01/17 08:15:10;;;;;;;6.47;1.75;;;;;;;9.08;100.00;102550.38;5131739;27;20047;-88
2022/01/17 08:17:37;;;;;;;3.92;1.20;;;;;;;9.15;100.00;102566.91;5104555;27;20527;-86
2022/01/17 08:20:05;;;;;;;6.53;1.77;;;;;;;8.98;100.00;102557.38;5114910;27;20048;-88
2022/01/17 08:22:31;;;;;;;8.48;2.08;;;;;;;8.91;100.00;102566.09;5114684;27;20050;-88
2022/01/17 08:24:58;;;;;;;6.60;1.80;;;;;;;8.54;100.00;102525.22;5115416;27;20047;-87
2022/01/17 08:27:26;;;;;;;7.07;2.20;;;;;;;8.42;100.00;102535.66;5133783;27;20465;-88
2022/01/17 08:29:54;;;;;;;7.80;1.98;;;;;;;8.60;100.00;102544.34;5120306;27;20055;-86
2022/01/17 08:32:41;;;;;;;10.32;1.90;;;;;;;8.39;100.00;102533.00;5117956;27;20055;-88
2022/01/17 08:35:09;;;;;;;6.05;2.20;;;;;;;8.71;100.00;102567.00;5125174;27;20683;-84
2022/01/17 08:37:36;;;;;;;9.00;1.67;;;;;;;8.50;100.00;102593.97;5114769;28;20074;-84
2022/01/17 08:40:06;;;;;;;7.80;1.85;;;;;;;8.31;100.00;102590.41;5114285;27;20055;-84
2022/01/17 08:42:38;;;;;;;6.95;1.55;;;;;;;8.21;100.00;102601.72;5114788;27;20043;-87
2022/01/17 08:45:08;;;;;;;5.90;1.50;;;;;;;8.32;100.00;102618.28;5115266;28;20074;-85
2022/01/17 08:47:52;;;;;;;5.22;1.50;;;;;;;7.98;100.00;102631.25;5133550;27;20047;-85
2022/01/17 08:50:21;;;;;;;7.45;1.88;;;;;;;7.94;100.00;102665.13;5114441;28;20069;-86
2022/01/17 08:52:49;;;;;;;6.25;1.70;;;;;;;7.96;100.00;102666.00;5115039;28;20745;-87
2022/01/17 08:55:17;;;;;;;5.53;1.58;;;;;;;7.91;100.00;102672.91;5114750;28;20047;-86
2022/01/17 08:57:44;;;;;;;11.95;2.22;;;;;;;7.94;100.00;102670.34;5133486;28;20065;-85
2022/01/17 09:00:17;;;;;;;5.82;2.08;;;;;;;7.92;100.00;102693.78;5115190;28;20499;-86
2022/01/17 09:03:02;;;;;;;9.65;2.35;;;;;;;8.03;100.00;102686.00;5132289;28;20045;-85
2022/01/17 09:05:31;;;;;;;7.13;2.00;;;;;;;8.01;100.00;102687.75;5124632;28;20043;-84
2022/01/17 09:07:59;;;;;;;6.68;2.78;;;;;;;8.33;100.00;102680.03;5135467;27;20164;-85
2022/01/17 09:10:26;;;;;;;12.30;2.42;;;;;;;8.35;100.00;102690.47;5118505;27;20515;-85
2022/01/17 09:12:53;;;;;;;13.70;3.70;;;;;;;8.36;100.00;102716.59;5136965;27;20054;-85
2022/01/17 09:15:20;;;;;;;10.52;2.90;;;;;;;8.38;100.00;102726.19;5133924;27;20043;-85
2022/01/17 09:17:47;;;;;;;9.60;2.80;;;;;;;8.07;100.00;102706.03;5117734;27;20520;-84
2022/01/17 09:20:14;;;;;;;15.27;2.83;;;;;;;7.95;100.00;102719.00;5135248;27;20158;-84
2022/01/17 09:22:41;;;;;;;11.23;3.47;;;;;;;7.91;100.00;102720.72;5119069;27;20039;-85
2022/01/17 09:25:08;;;;;;;17.88;3.38;;;;;;;7.84;100.00;102739.81;5117977;27;20733;-84
2022/01/17 09:27:42;;;;;;;11.77;3.00;;;;;;;8.12;100.00;102738.22;5119858;27;20480;-85
2022/01/17 09:30:15;;;;;;;21.90;5.47;;;;;;;8.04;100.00;102739.94;5117784;27;20159;-85
2022/01/17 09:32:42;;;;;;;26.80;7.15;;;;;;;8.10;100.00;102739.09;5136314;27;20138;-85
2022/01/17 09:35:13;;;;;;;35.53;8.18;;;;;;;8.14;100.00;102759.13;5117953;27;20493;-85
2022/01/17 09:37:40;;;;;;;34.83;9.20;;;;;;;8.17;100.00;102760.00;5136501;27;20524;-85
2022/01/17 09:40:08;;;;;;;21.63;7.53;;;;;;;7.85;100.00;102736.38;5135937;27;20404;-86
2022/01/17 09:42:37;;;;;;;19.90;4.85;;;;;;;8.27;100.00;102750.50;5118531;27;20051;-86
2022/01/17 09:45:06;;;;;;;23.15;6.20;;;;;;;8.26;100.00;102730.47;5135762;27;20126;-85
2022/01/17 09:47:34;;;;;;;17.63;3.63;;;;;;;8.42;100.00;102746.19;5135114;27;20049;-85
2022/01/17 09:50:03;;;;;;;15.48;4.50;;;;;;;8.63;100.00;102775.00;5135899;27;20047;-85
2022/01/17 09:52:35;;;;;;;12.30;3.97;;;;;;;8.51;100.00;102768.00;5118022;27;20053;-85
2022/01/17 09:55:13;;;;;;;14.48;3.72;;;;;;;8.87;100.00;102802.97;5117545;27;20051;-85
2022/01/17 09:57:46;;;;;;;14.13;3.88;;;;;;;8.57;100.00;102782.84;5097078;28;20130;-85
2022/01/17 10:00:14;;;;;;;;;;;;;;;8.97;100.00;102796.00;5105813;27;20050;-85
2022/01/17 10:02:41;;;;;;;10.98;3.15;;;;;;;8.55;100.00;102771.50;5117737;27;19926;-86
2022/01/17 10:05:13;;;;;;;11.18;3.55;;;;;;;8.55;100.00;102801.13;5136225;27;20388;-85
2022/01/17 10:08:11;;;;;;;12.18;3.40;;;;;;;8.72;100.00;102814.22;5135588;27;20047;-85
2022/01/17 10:10:47;;;;;;;11.05;3.60;;;;;;;8.69;100.00;102806.38;5122384;27;20047;-82
2022/01/17 10:13:14;;;;;;;15.23;4.90;;;;;;;8.76;100.00;102817.72;5117208;27;20051;-84
2022/01/17 10:16:01;;;;;;;12.30;4.00;;;;;;;8.63;100.00;102795.03;5133007;27;20178;-85
2022/01/17 10:18:37;;;;;;;13.23;3.83;;;;;;;8.64;100.00;102820.28;5134383;27;20051;-86
2022/01/17 10:21:19;;;;;;;15.52;4.18;;;;;;;8.55;100.00;102824.59;5113056;28;20043;-85
2022/01/17 10:35:26;;;;;;;11.88;2.83;;;;;;;9.28;100.00;102861.41;5115788;27;20047;-86
2022/01/17 10:37:57;;;;;;;6.47;2.20;;;;;;;9.35;100.00;102873.63;5135857;27;20043;-86
2022/01/17 10:40:27;;;;;;;11.02;2.58;;;;;;;9.41;100.00;102897.16;5116885;27;20057;-88
2022/01/17 10:42:55;;;;;;;9.52;2.25;;;;;;;9.60;100.00;102905.03;5117084;27;20066;-86
2022/01/17 10:45:24;;;;;;;10.27;2.28;;;;;;;9.72;100.00;102901.53;5117086;27;20047;-86
2022/01/17 10:47:55;;;;;;;14.88;3.20;;;;;;;9.29;100.00;102847.44;5135331;27;20051;-86
2022/01/17 10:50:35;;;;;;;9.18;2.42;;;;;;;9.94;100.00;102900.69;5124847;27;20048;-86
2022/01/17 10:53:11;;;;;;;10.95;2.63;;;;;;;9.58;100.00;102844.88;5096508;28;20048;-86
2022/01/17 10:55:45;;;;;;;14.52;2.33;;;;;;;9.93;100.00;102896.31;5114626;27;20043;-87
2022/01/17 10:58:16;;;;;;;10.98;2.20;;;;;;;10.34;100.00;102884.97;5114308;28;20704;-88
2022/01/17 11:00:46;;;;;;;7.07;1.80;;;;;;;10.43;100.00;102887.56;5126488;27;20047;-88
2022/01/17 11:03:16;;;;;;;9.48;2.97;;;;;;;10.42;100.00;102877.06;5117022;27;20561;-86
2022/01/17 11:05:48;;;;;;;5.57;1.45;;;;;;;10.71;100.00;102900.56;5112933;28;20100;-87
2022/01/17 11:08:17;;;;;;;8.15;1.95;;;;;;;10.25;100.00;102906.75;5096371;28;20061;-86
2022/01/17 11:10:47;;;;;;;8.05;1.83;;;;;;;10.24;100.00;102902.38;5115587;27;20470;-87
2022/01/17 11:13:16;;;;;;;11.95;2.17;;;;;;;10.31;100.00;102907.63;5134890;27;20073;-87
2022/01/17 11:15:46;;;;;;;7.82;1.88;;;;;;;10.43;100.00;102908.50;5115225;27;20062;-86
2022/01/17 11:18:23;;;;;;;7.45;1.85;;;;;;;10.54;100.00;102905.84;5120407;27;20047;-85
2022/01/17 11:20:56;;;;;;;8.93;1.80;;;;;;;10.73;100.00;102895.28;5127356;27;20057;-86
2022/01/17 11:23:26;;;;;;;3.72;1.35;;;;;;;10.51;100.00;102881.41;5116188;27;20510;-83
2022/01/17 11:25:55;;;;;;;7.32;1.70;;;;;;;10.20;100.00;102892.81;5112155;28;20046;-86
2022/01/17 11:28:26;;;;;;;10.13;1.88;;;;;;;10.34;100.00;102892.81;5114191;28;20043;-86
2022/01/17 11:30:58;;;;;;;7.95;1.60;;;;;;;10.44;100.00;102901.50;5115258;27;20082;-86
2022/01/17 11:33:26;;;;;;;9.73;1.90;;;;;;;10.42;100.00;102908.50;5115729;27;20047;-84
2022/01/17 11:35:54;;;;;;;7.95;1.90;;;;;;;10.36;100.00;102905.91;5129755;27;20485;-84
2022/01/17 11:38:36;;;;;;;6.85;1.48;;;;;;;10.27;100.00;102897.16;5095854;28;20056;-83
2022/01/17 11:41:04;;;;;;;7.25;1.42;;;;;;;10.18;100.00;102876.22;5111250;27;20417;-86
2022/01/17 11:43:34;;;;;;;6.35;1.67;;;;;;;10.21;100.00;102914.63;5115528;27;20043;-85
2022/01/17 11:46:15;;;;;;;9.27;1.80;;;;;;;10.03;100.00;102903.28;5097650;27;20055;-86
2022/01/17 11:49:07;;;;;;;9.07;3.20;;;;;;;9.88;100.00;102891.09;5110348;28;20047;-85
2022/01/17 11:51:49;;;;;;;9.50;2.03;;;;;;;9.98;100.00;102912.88;5094616;28;20053;-86
2022/01/17 11:54:22;;;;;;;7.63;1.90;;;;;;;10.01;100.00;102930.34;5131059;27;20055;-84
2022/01/17 11:56:57;;;;;;;9.57;2.75;;;;;;;10.02;100.00;102925.13;5115357;27;20047;-85
2022/01/17 11:59:42;;;;;;;9.13;2.28;;;;;;;10.21;100.00;102941.66;5133264;27;20047;-83